Terminal Aerodrome Forecast
Issued by NWS

Home | Current Version | Previous Version | Text Only | Print | Product List | Glossary On
Versions: 1 2 3 4 5 6 7 8 9 10 11 12
000
FTUS44 KBMX 221732
TAFTOI
TAF
KTOI 221732Z 2218/2318 16012KT P6SM -SHRA OVC015
     FM222300 18012G17KT 4SM RA VCTS SCT007CB OVC012
     FM230200 22007KT P6SM OVC015
     FM231000 28006KT P6SM SKC=

USA.gov is the U.S. government's official web portal to all federal, state and local government web resources and services.